sensor_id;sensor_type;location;lat;lon;timestamp;P1;durP1;ratioP1;P2;durP2;ratioP2
30888;SDS011;51092;50.874;7.024;2023-08-07T00:00:11;19.02;;;4.40;;
30888;SDS011;51092;50.874;7.024;2023-08-07T00:01:13;14.85;;;5.47;;
30888;SDS011;51092;50.874;7.024;2023-08-07T00:02:15;14.43;;;4.13;;
30888;SDS011;51092;50.874;7.024;2023-08-07T00:03:17;17.88;;;3.70;;
30888;SDS011;51092;50.874;7.024;2023-08-07T00:04:19;17.13;;;3.97;;
30888;SDS011;51092;50.874;7.024;2023-08-07T00:05:21;13.40;;;4.25;;
30888;SDS011;51092;50.874;7.024;2023-08-07T00:06:22;18.25;;;3.95;;
30888;SDS011;51092;50.874;7.024;2023-08-07T00:07:24;17.42;;;5.07;;
30888;SDS011;51092;50.874;7.024;2023-08-07T00:08:26;13.43;;;4.20;;
30888;SDS011;51092;50.874;7.024;2023-08-07T00:09:27;15.07;;;3.80;;
30888;SDS011;51092;50.874;7.024;2023-08-07T00:10:30;12.32;;;4.57;;
30888;SDS011;51092;50.874;7.024;2023-08-07T00:11:31;11.10;;;3.50;;
30888;SDS011;51092;50.874;7.024;2023-08-07T00:12:35;19.00;;;5.35;;
30888;SDS011;51092;50.874;7.024;2023-08-07T00:13:37;19.27;;;4.90;;
30888;SDS011;51092;50.874;7.024;2023-08-07T00:14:39;15.65;;;4.35;;
30888;SDS011;51092;50.874;7.024;2023-08-07T00:15:41;14.35;;;4.47;;
30888;SDS011;51092;50.874;7.024;2023-08-07T00:16:43;14.35;;;4.70;;
30888;SDS011;51092;50.874;7.024;2023-08-07T00:17:45;12.70;;;4.88;;
30888;SDS011;51092;50.874;7.024;2023-08-07T00:18:48;13.63;;;4.32;;
30888;SDS011;51092;50.874;7.024;2023-08-07T00:19:49;18.77;;;4.22;;
30888;SDS011;51092;50.874;7.024;2023-08-07T00:20:52;14.40;;;4.65;;
30888;SDS011;51092;50.874;7.024;2023-08-07T00:21:53;18.33;;;5.32;;
30888;SDS011;51092;50.874;7.024;2023-08-07T00:22:55;17.05;;;5.03;;
30888;SDS011;51092;50.874;7.024;2023-08-07T00:23:56;13.45;;;4.53;;
30888;SDS011;51092;50.874;7.024;2023-08-07T00:24:58;16.30;;;4.32;;
30888;SDS011;51092;50.874;7.024;2023-08-07T00:25:59;21.75;;;6.22;;
30888;SDS011;51092;50.874;7.024;2023-08-07T00:27:01;19.20;;;5.68;;
30888;SDS011;51092;50.874;7.024;2023-08-07T00:28:05;15.82;;;5.18;;
30888;SDS011;51092;50.874;7.024;2023-08-07T00:29:07;21.98;;;4.20;;
30888;SDS011;51092;50.874;7.024;2023-08-07T00:30:09;17.33;;;4.75;;
30888;SDS011;51092;50.874;7.024;2023-08-07T00:31:13;19.13;;;5.07;;
30888;SDS011;51092;50.874;7.024;2023-08-07T00:32:14;18.88;;;4.80;;
30888;SDS011;51092;50.874;7.024;2023-08-07T00:33:17;17.95;;;4.07;;
30888;SDS011;51092;50.874;7.024;2023-08-07T00:34:18;18.75;;;5.30;;
30888;SDS011;51092;50.874;7.024;2023-08-07T00:35:21;20.85;;;4.95;;
30888;SDS011;51092;50.874;7.024;2023-08-07T00:36:23;21.55;;;5.22;;
30888;SDS011;51092;50.874;7.024;2023-08-07T00:37:26;16.13;;;4.20;;
30888;SDS011;51092;50.874;7.024;2023-08-07T00:38:27;16.05;;;5.15;;
30888;SDS011;51092;50.874;7.024;2023-08-07T00:39:30;22.38;;;4.90;;
30888;SDS011;51092;50.874;7.024;2023-08-07T00:40:36;12.65;;;4.50;;
30888;SDS011;51092;50.874;7.024;2023-08-07T00:41:39;27.05;;;5.22;;
30888;SDS011;51092;50.874;7.024;2023-08-07T00:42:40;13.27;;;4.53;;
30888;SDS011;51092;50.874;7.024;2023-08-07T00:43:44;13.00;;;3.85;;
30888;SDS011;51092;50.874;7.024;2023-08-07T00:44:46;16.23;;;4.90;;
30888;SDS011;51092;50.874;7.024;2023-08-07T00:45:48;19.00;;;4.43;;
30888;SDS011;51092;50.874;7.024;2023-08-07T00:46:50;19.45;;;4.47;;
30888;SDS011;51092;50.874;7.024;2023-08-07T00:47:53;17.25;;;4.82;;
30888;SDS011;51092;50.874;7.024;2023-08-07T00:48:54;21.63;;;4.72;;
30888;SDS011;51092;50.874;7.024;2023-08-07T00:49:57;18.02;;;4.35;;
30888;SDS011;51092;50.874;7.024;2023-08-07T00:51:00;18.92;;;4.93;;
30888;SDS011;51092;50.874;7.024;2023-08-07T00:52:04;19.33;;;4.78;;
30888;SDS011;51092;50.874;7.024;2023-08-07T00:53:05;23.08;;;5.68;;
30888;SDS011;51092;50.874;7.024;2023-08-07T00:54:07;22.75;;;5.82;;
30888;SDS011;51092;50.874;7.024;2023-08-07T00:55:13;17.48;;;5.05;;
30888;SDS011;51092;50.874;7.024;2023-08-07T00:56:14;24.73;;;4.85;;
30888;SDS011;51092;50.874;7.024;2023-08-07T00:57:17;13.80;;;4.22;;
30888;SDS011;51092;50.874;7.024;2023-08-07T00:58:23;20.85;;;4.25;;
30888;SDS011;51092;50.874;7.024;2023-08-07T00:59:27;15.30;;;4.70;;
30888;SDS011;51092;50.874;7.024;2023-08-07T01:00:29;15.95;;;4.45;;
30888;SDS011;51092;50.874;7.024;2023-08-07T01:01:31;15.68;;;4.35;;
30888;SDS011;51092;50.874;7.024;2023-08-07T01:02:33;18.08;;;3.90;;
30888;SDS011;51092;50.874;7.024;2023-08-07T01:03:36;13.70;;;5.10;;
30888;SDS011;51092;50.874;7.024;2023-08-07T01:04:39;19.23;;;4.85;;
30888;SDS011;51092;50.874;7.024;2023-08-07T01:05:41;18.63;;;5.88;;
30888;SDS011;51092;50.874;7.024;2023-08-07T01:06:43;15.95;;;4.97;;
30888;SDS011;51092;50.874;7.024;2023-08-07T01:07:46;13.50;;;4.10;;
30888;SDS011;51092;50.874;7.024;2023-08-07T01:08:48;16.45;;;5.43;;
30888;SDS011;51092;50.874;7.024;2023-08-07T01:09:51;15.82;;;4.13;;
30888;SDS011;51092;50.874;7.024;2023-08-07T01:11:06;15.25;;;4.22;;
30888;SDS011;51092;50.874;7.024;2023-08-07T01:12:18;11.07;;;4.35;;
30888;SDS011;51092;50.874;7.024;2023-08-07T01:13:26;18.63;;;4.25;;
30888;SDS011;51092;50.874;7.024;2023-08-07T01:14:33;15.80;;;4.55;;
30888;SDS011;51092;50.874;7.024;2023-08-07T01:15:41;16.58;;;5.13;;
30888;SDS011;51092;50.874;7.024;2023-08-07T01:16:47;10.00;;;4.07;;
30888;SDS011;51092;50.874;7.024;2023-08-07T01:17:50;13.82;;;4.28;;
30888;SDS011;51092;50.874;7.024;2023-08-07T01:18:55;19.48;;;4.13;;
30888;SDS011;51092;50.874;7.024;2023-08-07T01:19:57;12.75;;;4.00;;
30888;SDS011;51092;50.874;7.024;2023-08-07T01:21:02;15.15;;;4.90;;
30888;SDS011;51092;50.874;7.024;2023-08-07T01:22:06;17.80;;;4.50;;
30888;SDS011;51092;50.874;7.024;2023-08-07T01:23:09;18.63;;;4.43;;
30888;SDS011;51092;50.874;7.024;2023-08-07T01:24:10;17.45;;;4.93;;
30888;SDS011;51092;50.874;7.024;2023-08-07T01:25:13;15.63;;;4.78;;
30888;SDS011;51092;50.874;7.024;2023-08-07T01:26:15;17.42;;;4.95;;
30888;SDS011;51092;50.874;7.024;2023-08-07T01:28:38;18.55;;;4.38;;
30888;SDS011;51092;50.874;7.024;2023-08-07T01:29:49;19.02;;;5.00;;
30888;SDS011;51092;50.874;7.024;2023-08-07T01:30:59;17.35;;;4.22;;
30888;SDS011;51092;50.874;7.024;2023-08-07T01:32:05;13.15;;;3.85;;
30888;SDS011;51092;50.874;7.024;2023-08-07T01:33:11;13.40;;;4.25;;
30888;SDS011;51092;50.874;7.024;2023-08-07T01:34:20;13.98;;;4.93;;
30888;SDS011;51092;50.874;7.024;2023-08-07T01:35:25;19.38;;;4.70;;
30888;SDS011;51092;50.874;7.024;2023-08-07T01:36:30;14.90;;;4.03;;
30888;SDS011;51092;50.874;7.024;2023-08-07T01:37:35;20.38;;;4.22;;
30888;SDS011;51092;50.874;7.024;2023-08-07T01:38:41;17.27;;;4.65;;
30888;SDS011;51092;50.874;7.024;2023-08-07T01:39:43;12.90;;;4.38;;
30888;SDS011;51092;50.874;7.024;2023-08-07T01:40:46;18.58;;;5.20;;
30888;SDS011;51092;50.874;7.024;2023-08-07T01:41:50;17.80;;;4.63;;
30888;SDS011;51092;50.874;7.024;2023-08-07T01:42:52;22.20;;;3.63;;
30888;SDS011;51092;50.874;7.024;2023-08-07T01:43:54;19.45;;;4.53;;
30888;SDS011;51092;50.874;7.024;2023-08-07T01:44:56;19.90;;;4.78;;
30888;SDS011;51092;50.874;7.024;2023-08-07T01:45:58;25.55;;;5.40;;
30888;SDS011;51092;50.874;7.024;2023-08-07T01:47:00;15.15;;;4.75;;
30888;SDS011;51092;50.874;7.024;2023-08-07T01:48:02;17.83;;;4.70;;
30888;SDS011;51092;50.874;7.024;2023-08-07T01:49:04;16.27;;;4.72;;
30888;SDS011;51092;50.874;7.024;2023-08-07T01:50:06;18.77;;;3.67;;
30888;SDS011;51092;50.874;7.024;2023-08-07T01:51:08;19.17;;;5.03;;
30888;SDS011;51092;50.874;7.024;2023-08-07T01:52:10;17.05;;;4.15;;
30888;SDS011;51092;50.874;7.024;2023-08-07T01:53:14;18.45;;;4.63;;
30888;SDS011;51092;50.874;7.024;2023-08-07T01:54:15;15.82;;;4.00;;
30888;SDS011;51092;50.874;7.024;2023-08-07T01:55:18;14.70;;;4.72;;
30888;SDS011;51092;50.874;7.024;2023-08-07T01:56:21;13.13;;;3.90;;
30888;SDS011;51092;50.874;7.024;2023-08-07T01:57:24;15.55;;;3.90;;
30888;SDS011;51092;50.874;7.024;2023-08-07T01:58:26;17.67;;;4.40;;
30888;SDS011;51092;50.874;7.024;2023-08-07T01:59:27;11.90;;;4.32;;
30888;SDS011;51092;50.874;7.024;2023-08-07T02:00:30;19.48;;;4.38;;
30888;SDS011;51092;50.874;7.024;2023-08-07T02:01:32;12.75;;;3.90;;
30888;SDS011;51092;50.874;7.024;2023-08-07T02:02:34;15.27;;;4.07;;
30888;SDS011;51092;50.874;7.024;2023-08-07T02:03:36;16.23;;;4.63;;
30888;SDS011;51092;50.874;7.024;2023-08-07T02:04:38;13.40;;;3.83;;
30888;SDS011;51092;50.874;7.024;2023-08-07T02:05:40;14.35;;;4.75;;
30888;SDS011;51092;50.874;7.024;2023-08-07T02:06:42;14.43;;;4.20;;
30888;SDS011;51092;50.874;7.024;2023-08-07T02:07:44;13.30;;;3.92;;
30888;SDS011;51092;50.874;7.024;2023-08-07T02:08:47;15.80;;;4.30;;
30888;SDS011;51092;50.874;7.024;2023-08-07T02:09:49;18.42;;;4.88;;
30888;SDS011;51092;50.874;7.024;2023-08-07T02:10:51;18.80;;;4.00;;
30888;SDS011;51092;50.874;7.024;2023-08-07T02:11:53;13.63;;;4.35;;
30888;SDS011;51092;50.874;7.024;2023-08-07T02:12:57;16.75;;;4.22;;
30888;SDS011;51092;50.874;7.024;2023-08-07T02:14:00;13.55;;;3.83;;
30888;SDS011;51092;50.874;7.024;2023-08-07T02:15:01;15.40;;;4.00;;
30888;SDS011;51092;50.874;7.024;2023-08-07T02:16:05;20.42;;;5.15;;
30888;SDS011;51092;50.874;7.024;2023-08-07T02:17:06;17.00;;;4.82;;
30888;SDS011;51092;50.874;7.024;2023-08-07T02:18:09;16.10;;;4.75;;
30888;SDS011;51092;50.874;7.024;2023-08-07T02:19:10;14.25;;;4.53;;
30888;SDS011;51092;50.874;7.024;2023-08-07T02:20:13;21.75;;;4.85;;
30888;SDS011;51092;50.874;7.024;2023-08-07T02:21:14;22.42;;;4.82;;
30888;SDS011;51092;50.874;7.024;2023-08-07T02:22:17;16.30;;;4.90;;
30888;SDS011;51092;50.874;7.024;2023-08-07T02:23:18;19.85;;;5.03;;
30888;SDS011;51092;50.874;7.024;2023-08-07T02:24:22;14.88;;;3.70;;
30888;SDS011;51092;50.874;7.024;2023-08-07T02:25:24;18.17;;;4.60;;
30888;SDS011;51092;50.874;7.024;2023-08-07T02:26:26;15.48;;;3.78;;
30888;SDS011;51092;50.874;7.024;2023-08-07T02:27:28;8.07;;;2.80;;
30888;SDS011;51092;50.874;7.024;2023-08-07T02:28:30;27.85;;;4.45;;
30888;SDS011;51092;50.874;7.024;2023-08-07T02:29:32;14.93;;;3.53;;
30888;SDS011;51092;50.874;7.024;2023-08-07T02:30:35;17.83;;;3.97;;
30888;SDS011;51092;50.874;7.024;2023-08-07T02:31:36;16.45;;;3.92;;
30888;SDS011;51092;50.874;7.024;2023-08-07T02:32:39;12.02;;;4.25;;
30888;SDS011;51092;50.874;7.024;2023-08-07T02:33:42;11.60;;;3.60;;
30888;SDS011;51092;50.874;7.024;2023-08-07T02:34:44;15.13;;;4.13;;
30888;SDS011;51092;50.874;7.024;2023-08-07T02:35:46;11.73;;;4.97;;
30888;SDS011;51092;50.874;7.024;2023-08-07T02:36:48;9.18;;;3.95;;
30888;SDS011;51092;50.874;7.024;2023-08-07T02:37:50;18.45;;;4.85;;
30888;SDS011;51092;50.874;7.024;2023-08-07T02:38:52;14.00;;;4.53;;
30888;SDS011;51092;50.874;7.024;2023-08-07T02:39:55;19.42;;;4.20;;
30888;SDS011;51092;50.874;7.024;2023-08-07T02:40:58;10.18;;;3.40;;
30888;SDS011;51092;50.874;7.024;2023-08-07T02:41:59;10.93;;;3.60;;
30888;SDS011;51092;50.874;7.024;2023-08-07T02:43:01;14.63;;;3.88;;
30888;SDS011;51092;50.874;7.024;2023-08-07T02:44:03;14.60;;;4.32;;
30888;SDS011;51092;50.874;7.024;2023-08-07T02:45:05;11.85;;;4.18;;
30888;SDS011;51092;50.874;7.024;2023-08-07T02:46:08;10.48;;;4.88;;
30888;SDS011;51092;50.874;7.024;2023-08-07T02:47:10;13.45;;;4.43;;
30888;SDS011;51092;50.874;7.024;2023-08-07T02:48:12;14.15;;;4.07;;
30888;SDS011;51092;50.874;7.024;2023-08-07T02:49:14;10.85;;;4.07;;
30888;SDS011;51092;50.874;7.024;2023-08-07T02:50:16;17.85;;;4.72;;
30888;SDS011;51092;50.874;7.024;2023-08-07T02:51:18;17.52;;;3.80;;
30888;SDS011;51092;50.874;7.024;2023-08-07T02:52:20;14.90;;;4.50;;
30888;SDS011;51092;50.874;7.024;2023-08-07T02:53:22;16.40;;;4.05;;
30888;SDS011;51092;50.874;7.024;2023-08-07T02:54:24;14.75;;;4.93;;
30888;SDS011;51092;50.874;7.024;2023-08-07T02:55:27;11.63;;;4.03;;
30888;SDS011;51092;50.874;7.024;2023-08-07T02:56:30;19.25;;;4.15;;
30888;SDS011;51092;50.874;7.024;2023-08-07T02:57:31;12.52;;;3.97;;
30888;SDS011;51092;50.874;7.024;2023-08-07T02:58:34;15.82;;;4.60;;
30888;SDS011;51092;50.874;7.024;2023-08-07T02:59:34;13.90;;;3.58;;
30888;SDS011;51092;50.874;7.024;2023-08-07T03:00:36;12.32;;;4.55;;
30888;SDS011;51092;50.874;7.024;2023-08-07T03:01:38;15.05;;;4.93;;
30888;SDS011;51092;50.874;7.024;2023-08-07T03:02:38;13.68;;;4.22;;
30888;SDS011;51092;50.874;7.024;2023-08-07T03:03:41;17.80;;;5.93;;
30888;SDS011;51092;50.874;7.024;2023-08-07T03:04:42;15.10;;;4.63;;
30888;SDS011;51092;50.874;7.024;2023-08-07T03:05:48;20.10;;;4.30;;
30888;SDS011;51092;50.874;7.024;2023-08-07T03:06:50;13.18;;;4.57;;
30888;SDS011;51092;50.874;7.024;2023-08-07T03:07:53;18.90;;;4.93;;
30888;SDS011;51092;50.874;7.024;2023-08-07T03:08:54;19.30;;;4.82;;
30888;SDS011;51092;50.874;7.024;2023-08-07T03:09:57;20.15;;;5.82;;
30888;SDS011;51092;50.874;7.024;2023-08-07T03:11:00;13.60;;;5.00;;
30888;SDS011;51092;50.874;7.024;2023-08-07T03:12:03;14.18;;;5.43;;
30888;SDS011;51092;50.874;7.024;2023-08-07T03:13:05;15.77;;;5.38;;
30888;SDS011;51092;50.874;7.024;2023-08-07T03:14:08;12.50;;;4.10;;
30888;SDS011;51092;50.874;7.024;2023-08-07T03:15:09;12.15;;;4.63;;
30888;SDS011;51092;50.874;7.024;2023-08-07T03:16:12;15.45;;;4.47;;
30888;SDS011;51092;50.874;7.024;2023-08-07T03:17:14;18.02;;;5.20;;
30888;SDS011;51092;50.874;7.024;2023-08-07T03:18:17;18.25;;;4.40;;
30888;SDS011;51092;50.874;7.024;2023-08-07T03:19:18;19.50;;;5.65;;
30888;SDS011;51092;50.874;7.024;2023-08-07T03:20:22;29.80;;;5.38;;
30888;SDS011;51092;50.874;7.024;2023-08-07T03:21:23;23.10;;;6.45;;
30888;SDS011;51092;50.874;7.024;2023-08-07T03:22:26;16.17;;;5.78;;
30888;SDS011;51092;50.874;7.024;2023-08-07T03:23:28;17.38;;;5.00;;
30888;SDS011;51092;50.874;7.024;2023-08-07T03:24:30;24.58;;;5.68;;
30888;SDS011;51092;50.874;7.024;2023-08-07T03:25:32;23.40;;;5.93;;
30888;SDS011;51092;50.874;7.024;2023-08-07T03:26:35;15.15;;;4.80;;
30888;SDS011;51092;50.874;7.024;2023-08-07T03:27:37;18.55;;;4.65;;
30888;SDS011;51092;50.874;7.024;2023-08-07T03:28:39;13.63;;;5.30;;
30888;SDS011;51092;50.874;7.024;2023-08-07T03:29:41;17.73;;;5.20;;
30888;SDS011;51092;50.874;7.024;2023-08-07T03:30:42;24.75;;;5.53;;
30888;SDS011;51092;50.874;7.024;2023-08-07T03:31:45;14.25;;;4.90;;
30888;SDS011;51092;50.874;7.024;2023-08-07T03:32:47;18.88;;;5.80;;
30888;SDS011;51092;50.874;7.024;2023-08-07T03:33:51;18.75;;;5.78;;
30888;SDS011;51092;50.874;7.024;2023-08-07T03:34:54;20.10;;;5.05;;
30888;SDS011;51092;50.874;7.024;2023-08-07T03:35:56;20.17;;;6.07;;
30888;SDS011;51092;50.874;7.024;2023-08-07T03:36:58;18.33;;;5.15;;
30888;SDS011;51092;50.874;7.024;2023-08-07T03:38:02;18.80;;;5.57;;
30888;SDS011;51092;50.874;7.024;2023-08-07T03:39:03;16.35;;;5.10;;
30888;SDS011;51092;50.874;7.024;2023-08-07T03:40:06;17.25;;;4.57;;
30888;SDS011;51092;50.874;7.024;2023-08-07T03:41:08;22.17;;;6.22;;
30888;SDS011;51092;50.874;7.024;2023-08-07T03:42:12;19.42;;;7.15;;
30888;SDS011;51092;50.874;7.024;2023-08-07T03:43:15;15.82;;;6.10;;
30888;SDS011;51092;50.874;7.024;2023-08-07T03:44:18;16.80;;;6.18;;
30888;SDS011;51092;50.874;7.024;2023-08-07T03:45:19;20.30;;;5.53;;
30888;SDS011;51092;50.874;7.024;2023-08-07T03:46:22;19.88;;;6.22;;
30888;SDS011;51092;50.874;7.024;2023-08-07T03:47:23;16.80;;;5.88;;
30888;SDS011;51092;50.874;7.024;2023-08-07T03:48:25;17.80;;;4.68;;
30888;SDS011;51092;50.874;7.024;2023-08-07T03:49:26;19.70;;;7.03;;
30888;SDS011;51092;50.874;7.024;2023-08-07T03:50:28;22.98;;;6.05;;
30888;SDS011;51092;50.874;7.024;2023-08-07T03:51:30;15.98;;;6.00;;
30888;SDS011;51092;50.874;7.024;2023-08-07T03:52:33;17.02;;;5.57;;
30888;SDS011;51092;50.874;7.024;2023-08-07T03:53:35;24.85;;;6.30;;
30888;SDS011;51092;50.874;7.024;2023-08-07T03:54:38;17.83;;;5.78;;
30888;SDS011;51092;50.874;7.024;2023-08-07T03:55:40;13.95;;;5.05;;
30888;SDS011;51092;50.874;7.024;2023-08-07T03:56:42;18.88;;;6.00;;
30888;SDS011;51092;50.874;7.024;2023-08-07T03:57:45;10.82;;;4.55;;
30888;SDS011;51092;50.874;7.024;2023-08-07T03:58:48;19.00;;;6.78;;
30888;SDS011;51092;50.874;7.024;2023-08-07T03:59:50;18.23;;;6.43;;
30888;SDS011;51092;50.874;7.024;2023-08-07T04:00:55;15.75;;;6.38;;
30888;SDS011;51092;50.874;7.024;2023-08-07T04:01:56;21.58;;;6.10;;
30888;SDS011;51092;50.874;7.024;2023-08-07T04:02:59;13.27;;;6.25;;
30888;SDS011;51092;50.874;7.024;2023-08-07T04:04:00;15.48;;;5.82;;
30888;SDS011;51092;50.874;7.024;2023-08-07T04:05:03;21.25;;;6.22;;
30888;SDS011;51092;50.874;7.024;2023-08-07T04:06:05;29.63;;;8.25;;
30888;SDS011;51092;50.874;7.024;2023-08-07T04:07:06;22.90;;;5.80;;
30888;SDS011;51092;50.874;7.024;2023-08-07T04:08:09;20.08;;;5.72;;
30888;SDS011;51092;50.874;7.024;2023-08-07T04:09:10;12.75;;;5.32;;
30888;SDS011;51092;50.874;7.024;2023-08-07T04:10:13;21.23;;;6.82;;
30888;SDS011;51092;50.874;7.024;2023-08-07T04:11:14;16.20;;;6.32;;
30888;SDS011;51092;50.874;7.024;2023-08-07T04:12:18;15.93;;;6.00;;
30888;SDS011;51092;50.874;7.024;2023-08-07T04:13:20;16.83;;;6.20;;
30888;SDS011;51092;50.874;7.024;2023-08-07T04:14:23;14.30;;;5.05;;
30888;SDS011;51092;50.874;7.024;2023-08-07T04:15:25;18.50;;;5.53;;
30888;SDS011;51092;50.874;7.024;2023-08-07T04:16:29;12.85;;;5.32;;
30888;SDS011;51092;50.874;7.024;2023-08-07T04:17:31;19.33;;;5.70;;
30888;SDS011;51092;50.874;7.024;2023-08-07T04:18:34;16.90;;;5.95;;
30888;SDS011;51092;50.874;7.024;2023-08-07T04:19:36;14.50;;;5.70;;
30888;SDS011;51092;50.874;7.024;2023-08-07T04:20:38;19.25;;;6.20;;
30888;SDS011;51092;50.874;7.024;2023-08-07T04:21:40;15.50;;;5.30;;
30888;SDS011;51092;50.874;7.024;2023-08-07T04:22:42;16.23;;;5.22;;
30888;SDS011;51092;50.874;7.024;2023-08-07T04:23:45;16.10;;;5.85;;
30888;SDS011;51092;50.874;7.024;2023-08-07T04:24:47;19.58;;;6.72;;
30888;SDS011;51092;50.874;7.024;2023-08-07T04:25:49;21.75;;;6.10;;
30888;SDS011;51092;50.874;7.024;2023-08-07T04:26:51;19.08;;;6.03;;
30888;SDS011;51092;50.874;7.024;2023-08-07T04:27:54;25.30;;;6.93;;
30888;SDS011;51092;50.874;7.024;2023-08-07T04:28:57;14.88;;;5.90;;
30888;SDS011;51092;50.874;7.024;2023-08-07T04:30:00;18.08;;;7.32;;
30888;SDS011;51092;50.874;7.024;2023-08-07T04:31:02;14.80;;;6.53;;
30888;SDS011;51092;50.874;7.024;2023-08-07T04:32:05;21.90;;;8.05;;
30888;SDS011;51092;50.874;7.024;2023-08-07T04:33:07;17.98;;;8.93;;
30888;SDS011;51092;50.874;7.024;2023-08-07T04:34:09;16.05;;;6.72;;
30888;SDS011;51092;50.874;7.024;2023-08-07T04:35:09;21.15;;;8.10;;
30888;SDS011;51092;50.874;7.024;2023-08-07T04:36:11;16.52;;;7.50;;
30888;SDS011;51092;50.874;7.024;2023-08-07T04:37:13;16.70;;;7.30;;
30888;SDS011;51092;50.874;7.024;2023-08-07T04:38:16;33.10;;;8.98;;
30888;SDS011;51092;50.874;7.024;2023-08-07T04:39:17;22.95;;;7.95;;
30888;SDS011;51092;50.874;7.024;2023-08-07T04:40:20;17.73;;;8.23;;
30888;SDS011;51092;50.874;7.024;2023-08-07T04:41:21;23.02;;;7.57;;
30888;SDS011;51092;50.874;7.024;2023-08-07T04:42:25;14.27;;;7.25;;
30888;SDS011;51092;50.874;7.024;2023-08-07T04:43:26;19.58;;;5.97;;
30888;SDS011;51092;50.874;7.024;2023-08-07T04:44:30;13.55;;;7.20;;
30888;SDS011;51092;50.874;7.024;2023-08-07T04:45:32;17.65;;;8.30;;
30888;SDS011;51092;50.874;7.024;2023-08-07T04:46:34;19.58;;;7.00;;
30888;SDS011;51092;50.874;7.024;2023-08-07T04:47:36;18.45;;;7.57;;
30888;SDS011;51092;50.874;7.024;2023-08-07T04:48:39;14.65;;;6.32;;
30888;SDS011;51092;50.874;7.024;2023-08-07T04:49:40;15.02;;;6.80;;
30888;SDS011;51092;50.874;7.024;2023-08-07T04:50:43;22.55;;;6.80;;
30888;SDS011;51092;50.874;7.024;2023-08-07T04:51:44;16.20;;;6.65;;
30888;SDS011;51092;50.874;7.024;2023-08-07T04:52:46;15.77;;;6.80;;
30888;SDS011;51092;50.874;7.024;2023-08-07T04:53:47;12.30;;;6.60;;
30888;SDS011;51092;50.874;7.024;2023-08-07T04:54:50;19.08;;;6.70;;
30888;SDS011;51092;50.874;7.024;2023-08-07T04:55:53;15.57;;;6.18;;
30888;SDS011;51092;50.874;7.024;2023-08-07T04:56:54;13.15;;;5.95;;
30888;SDS011;51092;50.874;7.024;2023-08-07T04:57:57;16.45;;;6.00;;
30888;SDS011;51092;50.874;7.024;2023-08-07T04:58:59;15.35;;;6.30;;
30888;SDS011;51092;50.874;7.024;2023-08-07T05:00:04;12.25;;;6.00;;
30888;SDS011;51092;50.874;7.024;2023-08-07T05:01:08;19.80;;;7.60;;
30888;SDS011;51092;50.874;7.024;2023-08-07T05:02:10;13.70;;;5.90;;
30888;SDS011;51092;50.874;7.024;2023-08-07T05:03:12;13.68;;;5.90;;
30888;SDS011;51092;50.874;7.024;2023-08-07T05:04:16;19.42;;;5.85;;
30888;SDS011;51092;50.874;7.024;2023-08-07T05:05:18;14.73;;;6.20;;
30888;SDS011;51092;50.874;7.024;2023-08-07T05:06:21;17.90;;;7.20;;
30888;SDS011;51092;50.874;7.024;2023-08-07T05:07:24;17.75;;;6.35;;
30888;SDS011;51092;50.874;7.024;2023-08-07T05:08:25;15.90;;;6.30;;
30888;SDS011;51092;50.874;7.024;2023-08-07T05:09:27;15.68;;;6.50;;
30888;SDS011;51092;50.874;7.024;2023-08-07T05:10:29;22.25;;;6.40;;
30888;SDS011;51092;50.874;7.024;2023-08-07T05:11:31;17.17;;;6.88;;
30888;SDS011;51092;50.874;7.024;2023-08-07T05:12:34;17.33;;;5.70;;
30888;SDS011;51092;50.874;7.024;2023-08-07T05:13:36;23.95;;;7.07;;
30888;SDS011;51092;50.874;7.024;2023-08-07T05:14:38;18.02;;;7.18;;
30888;SDS011;51092;50.874;7.024;2023-08-07T05:15:41;15.35;;;6.10;;
30888;SDS011;51092;50.874;7.024;2023-08-07T05:16:43;17.92;;;6.72;;
30888;SDS011;51092;50.874;7.024;2023-08-07T05:17:45;23.30;;;6.95;;
30888;SDS011;51092;50.874;7.024;2023-08-07T05:18:47;23.70;;;6.78;;
30888;SDS011;51092;50.874;7.024;2023-08-07T05:19:49;12.93;;;5.88;;
30888;SDS011;51092;50.874;7.024;2023-08-07T05:20:51;17.20;;;5.57;;
30888;SDS011;51092;50.874;7.024;2023-08-07T05:21:53;17.02;;;5.85;;
30888;SDS011;51092;50.874;7.024;2023-08-07T05:22:54;23.33;;;6.30;;
30888;SDS011;51092;50.874;7.024;2023-08-07T05:23:56;16.88;;;4.95;;
30888;SDS011;51092;50.874;7.024;2023-08-07T05:24:58;18.23;;;6.40;;
30888;SDS011;51092;50.874;7.024;2023-08-07T05:25:59;24.63;;;6.20;;
30888;SDS011;51092;50.874;7.024;2023-08-07T05:27:01;15.43;;;5.70;;
30888;SDS011;51092;50.874;7.024;2023-08-07T05:28:03;23.30;;;5.60;;
30888;SDS011;51092;50.874;7.024;2023-08-07T05:29:05;20.50;;;5.93;;
30888;SDS011;51092;50.874;7.024;2023-08-07T05:30:08;15.35;;;4.93;;
30888;SDS011;51092;50.874;7.024;2023-08-07T05:31:11;21.13;;;4.97;;
30888;SDS011;51092;50.874;7.024;2023-08-07T05:32:14;26.58;;;4.88;;
30888;SDS011;51092;50.874;7.024;2023-08-07T05:33:16;13.00;;;5.03;;
30888;SDS011;51092;50.874;7.024;2023-08-07T05:34:18;13.65;;;5.32;;
30888;SDS011;51092;50.874;7.024;2023-08-07T05:35:19;24.58;;;5.50;;
30888;SDS011;51092;50.874;7.024;2023-08-07T05:36:22;14.95;;;5.80;;
30888;SDS011;51092;50.874;7.024;2023-08-07T05:37:23;16.20;;;4.90;;
30888;SDS011;51092;50.874;7.024;2023-08-07T05:38:27;13.30;;;4.72;;
30888;SDS011;51092;50.874;7.024;2023-08-07T05:39:29;13.18;;;5.00;;
30888;SDS011;51092;50.874;7.024;2023-08-07T05:40:31;11.68;;;4.82;;
30888;SDS011;51092;50.874;7.024;2023-08-07T05:41:33;13.02;;;4.63;;
30888;SDS011;51092;50.874;7.024;2023-08-07T05:42:34;17.05;;;4.53;;
30888;SDS011;51092;50.874;7.024;2023-08-07T05:43:37;19.63;;;3.92;;
30888;SDS011;51092;50.874;7.024;2023-08-07T05:44:38;17.48;;;4.80;;
30888;SDS011;51092;50.874;7.024;2023-08-07T05:45:41;20.48;;;5.22;;
30888;SDS011;51092;50.874;7.024;2023-08-07T05:46:46;16.45;;;3.97;;
30888;SDS011;51092;50.874;7.024;2023-08-07T05:47:49;13.48;;;5.00;;
30888;SDS011;51092;50.874;7.024;2023-08-07T05:48:50;13.40;;;5.05;;
30888;SDS011;51092;50.874;7.024;2023-08-07T05:49:53;19.73;;;4.85;;
30888;SDS011;51092;50.874;7.024;2023-08-07T05:50:54;17.35;;;5.38;;
30888;SDS011;51092;50.874;7.024;2023-08-07T05:51:57;16.67;;;4.15;;
30888;SDS011;51092;50.874;7.024;2023-08-07T05:52:58;15.48;;;4.97;;
30888;SDS011;51092;50.874;7.024;2023-08-07T05:54:00;17.38;;;4.75;;
30888;SDS011;51092;50.874;7.024;2023-08-07T05:55:02;16.55;;;4.88;;
30888;SDS011;51092;50.874;7.024;2023-08-07T05:56:05;12.52;;;4.30;;
30888;SDS011;51092;50.874;7.024;2023-08-07T05:57:07;12.00;;;4.18;;
30888;SDS011;51092;50.874;7.024;2023-08-07T05:58:08;13.50;;;4.40;;
30888;SDS011;51092;50.874;7.024;2023-08-07T05:59:11;14.02;;;3.47;;
30888;SDS011;51092;50.874;7.024;2023-08-07T06:00:12;13.70;;;4.15;;
30888;SDS011;51092;50.874;7.024;2023-08-07T06:01:18;13.77;;;4.07;;
30888;SDS011;51092;50.874;7.024;2023-08-07T06:02:21;9.68;;;3.72;;
30888;SDS011;51092;50.874;7.024;2023-08-07T06:03:23;12.45;;;3.78;;
30888;SDS011;51092;50.874;7.024;2023-08-07T06:04:25;14.10;;;3.97;;
30888;SDS011;51092;50.874;7.024;2023-08-07T06:05:27;8.93;;;3.58;;
30888;SDS011;51092;50.874;7.024;2023-08-07T06:06:29;9.90;;;3.42;;
30888;SDS011;51092;50.874;7.024;2023-08-07T06:07:35;14.10;;;4.47;;
30888;SDS011;51092;50.874;7.024;2023-08-07T06:08:36;8.77;;;3.78;;
30888;SDS011;51092;50.874;7.024;2023-08-07T06:09:39;13.93;;;4.40;;
30888;SDS011;51092;50.874;7.024;2023-08-07T06:10:40;14.30;;;4.25;;
30888;SDS011;51092;50.874;7.024;2023-08-07T06:11:43;8.00;;;3.60;;
30888;SDS011;51092;50.874;7.024;2023-08-07T06:12:44;15.40;;;5.13;;